Time;durP1;ratioP1;P1;durP2;ratioP2;P2;SDS_P1;SDS_P2;PMS_P1;PMS_P2;Temp;Humidity;BMP_temperature;BMP_pressure;BME280_temperature;BME280_humidity;BME280_pressure;Samples;Min_cycle;Max_cycle;Signal;HPM_P1;HPM_P2
2021/08/30 00:00:37;;;;;;;1.73;0.47;;;;;;;18.87;56.88;98199.69;5056130;28;20028;-58
2021/08/30 00:03:03;;;;;;;1.83;0.47;;;;;;;18.80;57.23;98199.72;5060378;28;20135;-58
2021/08/30 00:05:28;;;;;;;2.10;0.60;;;;;;;18.71;57.85;98197.50;5060973;28;20506;-58
2021/08/30 00:07:54;;;;;;;2.20;0.60;;;;;;;18.75;57.84;98202.16;5057238;28;20666;-58
2021/08/30 00:10:19;;;;;;;1.90;0.60;;;;;;;18.60;57.43;98178.69;5057310;28;20058;-57
2021/08/30 00:12:45;;;;;;;1.75;0.50;;;;;;;18.76;57.86;98187.94;5060801;28;20036;-58
2021/08/30 00:15:12;;;;;;;2.40;0.70;;;;;;;18.79;58.25;98203.34;5077111;28;20135;-58
2021/08/30 00:17:38;;;;;;;1.80;0.60;;;;;;;18.56;57.99;98158.25;5057639;28;20029;-57
2021/08/30 00:20:05;;;;;;;2.47;0.50;;;;;;;18.72;57.76;98193.84;5062389;28;20079;-58
2021/08/30 00:22:30;;;;;;;1.95;0.57;;;;;;;18.76;57.81;98192.41;5054837;28;20081;-58
2021/08/30 00:24:55;;;;;;;2.53;0.50;;;;;;;18.83;57.96;98198.50;5056230;28;20526;-58
2021/08/30 00:27:21;;;;;;;1.55;0.50;;;;;;;18.85;57.94;98206.19;5057936;28;20058;-58
2021/08/30 00:29:46;;;;;;;1.40;0.50;;;;;;;18.85;57.51;98200.94;5061416;28;20031;-58
2021/08/30 00:32:12;;;;;;;1.35;0.40;;;;;;;18.72;58.17;98202.56;5060024;28;20048;-58
2021/08/30 00:34:37;;;;;;;1.67;0.60;;;;;;;18.75;58.23;98207.41;5064458;28;20040;-57
2021/08/30 00:37:02;;;;;;;2.67;0.60;;;;;;;18.63;58.54;98211.69;5060264;28;20036;-58
2021/08/30 00:39:30;;;;;;;2.30;0.63;;;;;;;18.54;58.99;98205.03;5065347;28;20561;-57
2021/08/30 00:41:56;;;;;;;2.08;0.60;;;;;;;18.31;58.50;98169.47;5060917;28;20020;-58
2021/08/30 00:44:22;;;;;;;2.65;0.70;;;;;;;18.55;58.99;98210.09;5073537;28;20415;-58
2021/08/30 00:46:48;;;;;;;1.55;0.50;;;;;;;18.43;59.63;98195.94;5058092;28;20036;-58
2021/08/30 00:49:13;;;;;;;1.50;0.57;;;;;;;18.46;59.58;98213.97;5061299;28;20031;-57
2021/08/30 00:51:38;;;;;;;3.22;0.60;;;;;;;18.40;60.08;98209.53;5060567;28;20794;-58
2021/08/30 00:54:04;;;;;;;2.97;0.80;;;;;;;18.31;59.90;98202.84;5061609;28;20036;-58
2021/08/30 00:56:29;;;;;;;4.07;0.75;;;;;;;18.29;60.53;98204.88;5062402;28;20029;-58
2021/08/30 00:58:55;;;;;;;1.85;0.50;;;;;;;18.29;60.91;98210.13;5062416;28;20032;-58
2021/08/30 01:01:22;;;;;;;1.55;0.55;;;;;;;18.13;60.62;98206.91;5057680;28;20048;-58
2021/08/30 01:03:48;;;;;;;1.52;0.55;;;;;;;18.11;60.91;98200.22;5059546;28;20078;-58
2021/08/30 01:06:35;;;;;;;2.38;0.65;;;;;;;18.11;60.96;98197.59;5059804;28;20040;-59
2021/08/30 01:09:26;;;;;;;2.28;0.70;;;;;;;18.05;61.00;98200.03;5061126;28;20032;-58
2021/08/30 01:12:01;;;;;;;2.30;0.70;;;;;;;18.03;61.81;98194.19;5061892;28;20238;-58
2021/08/30 01:14:26;;;;;;;1.85;0.63;;;;;;;18.04;61.47;98185.25;5053761;28;20025;-58
2021/08/30 01:16:53;;;;;;;1.70;0.50;;;;;;;18.05;61.00;98184.25;5073133;28;20025;-59
2021/08/30 01:19:25;;;;;;;1.88;0.60;;;;;;;17.96;61.17;98179.38;5058010;28;20036;-58
2021/08/30 01:21:50;;;;;;;1.70;0.50;;;;;;;17.99;60.34;98181.63;5056642;28;20031;-58
2021/08/30 01:24:18;;;;;;;2.70;0.50;;;;;;;18.03;59.98;98190.72;5057563;28;20535;-58
2021/08/30 01:26:49;;;;;;;2.67;0.63;;;;;;;17.97;60.40;98186.28;5034699;28;20031;-58
2021/08/30 01:29:17;;;;;;;1.80;0.52;;;;;;;17.93;60.34;98188.50;5059654;28;20487;-57
2021/08/30 01:32:03;;;;;;;3.28;0.50;;;;;;;17.92;60.24;98184.25;5047827;28;20538;-57
2021/08/30 01:34:30;;;;;;;1.25;0.40;;;;;;;17.76;60.30;98150.44;5056253;28;20367;-58
2021/08/30 01:36:55;;;;;;;2.60;0.50;;;;;;;17.82;60.75;98191.72;5053350;28;20078;-57
2021/08/30 01:39:26;;;;;;;1.25;0.40;;;;;;;17.54;60.28;98165.56;5058511;28;20028;-58
2021/08/30 01:41:52;;;;;;;1.60;0.50;;;;;;;17.69;59.96;98182.00;5061230;28;20028;-58
2021/08/30 01:44:17;;;;;;;1.60;0.50;;;;;;;17.73;59.77;98183.19;5055330;28;20398;-58
2021/08/30 01:46:43;;;;;;;2.00;0.60;;;;;;;17.50;59.94;98173.06;5057002;28;20037;-58
2021/08/30 01:49:09;;;;;;;1.25;0.50;;;;;;;17.57;60.38;98194.91;5074157;28;20035;-57
2021/08/30 01:51:35;;;;;;;1.55;0.50;;;;;;;17.57;60.77;98189.66;5072964;28;20029;-58
2021/08/30 01:54:00;;;;;;;2.03;0.50;;;;;;;17.58;61.05;98204.41;5077403;28;20481;-58
2021/08/30 01:56:28;;;;;;;2.10;0.55;;;;;;;17.65;60.68;98204.41;5063839;28;20112;-58
2021/08/30 02:01:39;;;;;;;1.63;0.52;;;;;;;17.60;61.38;98193.72;5051857;28;20040;-57
2021/08/30 02:04:04;;;;;;;1.95;0.60;;;;;;;17.64;61.26;98200.19;5059056;28;20021;-55
2021/08/30 02:06:32;;;;;;;1.85;0.57;;;;;;;17.52;61.27;98196.50;5056565;28;20028;-57
2021/08/30 02:08:58;;;;;;;2.15;0.63;;;;;;;17.57;61.57;98202.78;5063706;28;20046;-57
2021/08/30 02:11:41;;;;;;;1.80;0.65;;;;;;;17.60;61.81;98193.72;5060763;28;20158;-59
2021/08/30 02:14:07;;;;;;;3.63;0.63;;;;;;;17.64;61.55;98202.81;5061602;28;20062;-58
2021/08/30 02:16:33;;;;;;;1.83;0.60;;;;;;;17.57;62.23;98196.72;5063181;28;20796;-58
2021/08/30 02:19:11;;;;;;;1.85;0.60;;;;;;;17.60;62.74;98201.59;5058236;28;20036;-58
2021/08/30 02:21:41;;;;;;;1.55;0.50;;;;;;;17.43;61.72;98166.97;5064227;28;20047;-58
2021/08/30 02:24:27;;;;;;;1.80;0.60;;;;;;;17.45;62.32;98157.91;5062390;28;20537;-58
2021/08/30 02:27:18;;;;;;;2.97;0.57;;;;;;;17.48;61.88;98169.81;5061016;28;20043;-57
2021/08/30 02:29:47;;;;;;;1.45;0.50;;;;;;;17.44;61.85;98155.47;5059054;28;20124;-58
2021/08/30 02:32:15;;;;;;;1.87;0.57;;;;;;;17.48;61.96;98154.03;5061751;28;20118;-56
2021/08/30 02:34:45;;;;;;;1.58;0.50;;;;;;;17.74;62.21;98178.75;5055298;28;20050;-57
2021/08/30 02:37:11;;;;;;;1.67;0.50;;;;;;;17.59;61.62;98187.63;5077173;28;20029;-57
2021/08/30 02:39:37;;;;;;;1.83;0.60;;;;;;;17.60;61.97;98183.19;5057800;28;20099;-58
2021/08/30 02:42:04;;;;;;;1.17;0.50;;;;;;;17.73;60.76;98177.13;5058972;28;20037;-58
2021/08/30 02:44:30;;;;;;;1.88;0.50;;;;;;;17.74;60.71;98184.84;5061435;28;20542;-58
2021/08/30 02:46:55;;;;;;;1.23;0.43;;;;;;;17.65;60.01;98152.66;5075343;28;20035;-58
2021/08/30 02:49:22;;;;;;;2.28;0.60;;;;;;;17.86;59.86;98180.59;5059572;28;20036;-58
2021/08/30 02:51:50;;;;;;;0.93;0.35;;;;;;;17.90;59.94;98181.00;5058595;28;20032;-58
2021/08/30 02:54:15;;;;;;;1.50;0.47;;;;;;;17.91;59.14;98180.00;5057036;28;20044;-58
2021/08/30 02:56:42;;;;;;;1.08;0.40;;;;;;;17.66;59.38;98148.19;5059874;28;20024;-58
2021/08/30 02:59:08;;;;;;;1.15;0.30;;;;;;;17.91;59.36;98172.13;5060836;28;20455;-58
2021/08/30 03:01:34;;;;;;;1.33;0.50;;;;;;;17.90;59.99;98172.31;5061682;28;20040;-58
2021/08/30 03:03:59;;;;;;;2.15;0.40;;;;;;;17.91;59.18;98174.75;5069452;28;20024;-58
2021/08/30 03:06:25;;;;;;;1.15;0.40;;;;;;;17.85;59.38;98171.09;5048084;28;20036;-58
2021/08/30 03:08:51;;;;;;;1.42;0.43;;;;;;;17.94;59.05;98173.53;5055708;28;20388;-57
2021/08/30 03:11:17;;;;;;;1.38;0.40;;;;;;;17.91;59.18;98184.47;5076376;28;20047;-57
2021/08/30 03:13:43;;;;;;;1.00;0.30;;;;;;;17.77;59.80;98168.63;5064161;28;20032;-58
2021/08/30 03:16:09;;;;;;;0.70;0.32;;;;;;;17.83;59.55;98182.78;5058968;28;20024;-58
2021/08/30 03:18:38;;;;;;;1.10;0.40;;;;;;;17.72;59.51;98141.34;5061896;28;20031;-61
2021/08/30 03:21:04;;;;;;;1.38;0.45;;;;;;;17.90;59.24;98180.19;5062378;28;20029;-59
2021/08/30 03:23:30;;;;;;;3.50;0.60;;;;;;;17.59;59.66;98139.50;5059330;28;20032;-57
2021/08/30 03:25:56;;;;;;;0.95;0.30;;;;;;;17.65;59.51;98150.03;5056391;28;20029;-57
2021/08/30 03:28:22;;;;;;;1.58;0.45;;;;;;;17.59;59.63;98144.75;5075577;28;20376;-58
2021/08/30 03:30:49;;;;;;;1.02;0.40;;;;;;;17.58;59.35;98143.97;5065963;28;20101;-58
2021/08/30 03:33:15;;;;;;;2.30;0.40;;;;;;;17.75;59.43;98175.13;5042449;28;20028;-58
2021/08/30 03:35:41;;;;;;;2.45;0.47;;;;;;;17.64;59.92;98158.13;5059499;28;20627;-60
2021/08/30 03:38:07;;;;;;;2.42;0.50;;;;;;;17.54;59.81;98131.41;5067061;28;20478;-56
2021/08/30 03:40:32;;;;;;;1.73;0.50;;;;;;;17.74;59.68;98176.94;5061335;28;20020;-58
2021/08/30 03:42:59;;;;;;;2.13;0.50;;;;;;;17.68;59.81;98159.31;5043227;28;20454;-58
2021/08/30 03:45:27;;;;;;;0.82;0.38;;;;;;;17.78;59.43;98172.91;5054995;28;20029;-58
2021/08/30 03:47:54;;;;;;;1.30;0.55;;;;;;;17.80;59.27;98170.06;5060104;28;20062;-58
2021/08/30 03:50:19;;;;;;;1.70;0.50;;;;;;;17.72;59.22;98155.28;5076664;28;20028;-58
2021/08/30 03:52:45;;;;;;;1.85;0.55;;;;;;;17.90;59.03;98172.31;5071929;28;20046;-58
2021/08/30 03:55:11;;;;;;;1.23;0.43;;;;;;;17.77;59.18;98162.56;5069920;28;20028;-57
2021/08/30 03:57:37;;;;;;;2.42;0.60;;;;;;;17.81;59.63;98167.22;5074742;28;20139;-58
2021/08/30 04:00:04;;;;;;;1.92;0.50;;;;;;;17.68;59.66;98138.28;5053136;28;20120;-55
2021/08/30 04:02:31;;;;;;;2.33;0.50;;;;;;;17.90;59.71;98165.22;5055703;28;20407;-58
2021/08/30 04:04:57;;;;;;;1.30;0.50;;;;;;;17.93;59.44;98167.47;5056925;28;20027;-58
2021/08/30 04:07:23;;;;;;;1.63;0.50;;;;;;;17.91;59.19;98172.13;5060084;28;20115;-58
2021/08/30 04:09:51;;;;;;;0.80;0.32;;;;;;;17.83;59.23;98170.47;5072210;28;20099;-56
2021/08/30 04:12:17;;;;;;;1.63;0.50;;;;;;;17.82;58.99;98178.56;5082524;28;20032;-57
2021/08/30 04:14:44;;;;;;;1.63;0.40;;;;;;;17.80;59.17;98162.19;5058379;28;20028;-58
2021/08/30 04:17:09;;;;;;;1.80;0.40;;;;;;;17.82;59.09;98179.34;5076477;28;20384;-58
2021/08/30 04:19:35;;;;;;;0.93;0.30;;;;;;;17.80;59.54;98175.31;5059686;28;20028;-58
2021/08/30 04:22:01;;;;;;;1.27;0.40;;;;;;;17.84;59.65;98179.97;5058867;28;20029;-58
2021/08/30 04:24:26;;;;;;;2.08;0.55;;;;;;;17.79;59.50;98190.28;5062890;28;20035;-58
2021/08/30 04:26:52;;;;;;;2.42;0.43;;;;;;;17.74;59.44;98187.47;5061755;28;20055;-57
2021/08/30 04:29:17;;;;;;;1.95;0.57;;;;;;;17.75;59.32;98183.81;5067409;28;20069;-57
2021/08/30 04:31:42;;;;;;;1.30;0.50;;;;;;;17.75;58.78;98185.63;5058817;28;20028;-57
2021/08/30 04:34:08;;;;;;;1.40;0.50;;;;;;;17.75;58.91;98183.00;5062045;28;20477;-58
2021/08/30 04:36:33;;;;;;;1.42;0.50;;;;;;;17.73;59.08;98185.84;5058366;28;20044;-58
2021/08/30 04:38:59;;;;;;;1.50;0.50;;;;;;;17.52;59.18;98164.97;5066068;28;20111;-58
2021/08/30 04:41:24;;;;;;;1.08;0.40;;;;;;;17.68;59.08;98183.78;5059070;28;20024;-58
2021/08/30 04:43:51;;;;;;;1.10;0.30;;;;;;;17.70;58.64;98194.09;5057396;28;20043;-58
2021/08/30 04:46:16;;;;;;;3.38;0.50;;;;;;;17.73;58.84;98203.44;5061194;28;20036;-57
2021/08/30 04:48:42;;;;;;;1.50;0.40;;;;;;;17.65;58.60;98170.22;5056778;28;20028;-58
2021/08/30 04:51:07;;;;;;;1.77;0.40;;;;;;;17.78;58.71;98193.94;5058013;28;20678;-57
2021/08/30 04:53:32;;;;;;;1.15;0.30;;;;;;;17.74;59.29;98194.53;5059762;28;20078;-58
2021/08/30 04:55:58;;;;;;;1.13;0.38;;;;;;;17.75;58.16;98193.53;5050947;28;20510;-57
2021/08/30 04:58:23;;;;;;;2.22;0.47;;;;;;;17.66;57.99;98185.00;5047487;28;20236;-58
2021/08/30 05:00:49;;;;;;;2.15;0.50;;;;;;;17.81;57.89;98198.75;5048628;28;20127;-58
2021/08/30 05:03:14;;;;;;;2.47;0.40;;;;;;;17.76;58.33;98195.97;5050011;28;20024;-57
2021/08/30 05:05:39;;;;;;;1.45;0.40;;;;;;;17.54;58.23;98160.31;5051616;28;20521;-58
2021/08/30 05:08:05;;;;;;;1.65;0.40;;;;;;;17.61;58.19;98177.72;5065414;28;20025;-56
2021/08/30 05:10:31;;;;;;;1.27;0.35;;;;;;;17.78;58.00;98209.72;5047730;28;20132;-58
2021/08/30 05:12:56;;;;;;;1.17;0.50;;;;;;;17.53;58.21;98177.13;5045897;28;20407;-58
2021/08/30 05:15:21;;;;;;;1.42;0.40;;;;;;;17.58;58.10;98191.28;5054773;28;20101;-58
2021/08/30 05:17:49;;;;;;;1.30;0.40;;;;;;;17.45;58.32;98171.03;5054394;28;20387;-58
2021/08/30 05:20:15;;;;;;;2.75;0.50;;;;;;;17.68;58.21;98211.91;5054822;28;20142;-58
2021/08/30 05:22:40;;;;;;;1.80;0.50;;;;;;;17.76;58.20;98218.78;5045823;28;20406;-58
2021/08/30 05:25:06;;;;;;;1.38;0.50;;;;;;;17.82;58.10;98216.19;5054008;28;20110;-58
2021/08/30 05:27:31;;;;;;;1.67;0.50;;;;;;;17.54;58.28;98163.78;5056575;28;20071;-58
2021/08/30 05:29:57;;;;;;;2.40;0.68;;;;;;;17.81;58.64;98213.75;5044322;28;20150;-58
2021/08/30 05:32:22;;;;;;;2.17;0.57;;;;;;;17.94;58.48;98215.59;5052874;28;20391;-59
2021/08/30 05:34:47;;;;;;;1.77;0.47;;;;;;;18.03;57.93;98220.47;5060128;28;20040;-58
2021/08/30 05:37:13;;;;;;;2.22;0.60;;;;;;;18.06;57.70;98224.53;5064080;28;20032;-58
2021/08/30 05:39:38;;;;;;;2.03;0.30;;;;;;;17.84;58.02;98195.75;5064055;28;20541;-58
2021/08/30 05:42:04;;;;;;;1.05;0.32;;;;;;;17.96;57.57;98205.69;5059136;28;20100;-58
2021/08/30 05:44:29;;;;;;;1.67;0.50;;;;;;;17.99;58.15;98215.81;5056591;28;20025;-58
2021/08/30 05:46:55;;;;;;;3.30;0.82;;;;;;;18.06;59.87;98222.69;5056919;28;20058;-59
2021/08/30 05:49:21;;;;;;;1.67;0.50;;;;;;;18.09;60.24;98221.50;5058610;28;20455;-58
2021/08/30 05:51:47;;;;;;;4.18;0.70;;;;;;;18.08;60.07;98229.59;5063329;28;20126;-57
2021/08/30 05:54:13;;;;;;;1.65;0.57;;;;;;;17.98;60.58;98201.88;5059287;28;20040;-58
2021/08/30 05:56:38;;;;;;;2.00;0.50;;;;;;;17.89;60.95;98202.25;5062638;28;20356;-58
2021/08/30 05:59:03;;;;;;;2.42;0.50;;;;;;;18.02;61.61;98236.47;5058517;28;20028;-58
2021/08/30 06:01:29;;;;;;;3.08;0.63;;;;;;;18.09;60.96;98237.28;5061131;28;20137;-60
2021/08/30 06:03:54;;;;;;;3.60;0.90;;;;;;;18.06;61.32;98242.94;5053042;28;20029;-58
2021/08/30 06:06:20;;;;;;;2.92;0.90;;;;;;;18.07;61.14;98239.31;5064555;28;20033;-59
2021/08/30 06:08:45;;;;;;;3.35;0.70;;;;;;;18.13;61.80;98238.47;5061173;28;20024;-58
2021/08/30 06:11:10;;;;;;;7.10;0.93;;;;;;;18.09;61.71;98246.97;5066182;28;20054;-57
2021/08/30 06:13:36;;;;;;;5.35;1.10;;;;;;;18.02;62.01;98231.19;5065286;28;20036;-58
2021/08/30 06:16:01;;;;;;;3.08;0.98;;;;;;;18.09;62.34;98247.81;5065382;28;20025;-58
2021/08/30 06:18:27;;;;;;;4.90;1.30;;;;;;;17.89;62.12;98221.47;5063376;28;20040;-59
2021/08/30 06:20:52;;;;;;;11.75;1.88;;;;;;;18.04;62.47;98250.22;5061535;28;20035;-58
2021/08/30 06:23:18;;;;;;;6.47;1.27;;;;;;;18.08;62.74;98248.78;5060583;28;20503;-59
2021/08/30 06:25:44;;;;;;;4.75;1.17;;;;;;;18.16;63.07;98247.78;5069791;28;20044;-58
2021/08/30 06:28:09;;;;;;;8.93;1.40;;;;;;;18.06;63.33;98248.19;5054298;28;20127;-58
2021/08/30 06:30:35;;;;;;;6.07;1.40;;;;;;;17.97;63.39;98246.78;5062402;28;20064;-58
2021/08/30 06:33:01;;;;;;;8.02;1.20;;;;;;;18.11;63.19;98245.78;5062855;28;20379;-58
2021/08/30 06:35:26;;;;;;;7.22;1.13;;;;;;;18.09;63.21;98245.16;5051523;28;20157;-58
2021/08/30 06:37:52;;;;;;;5.40;1.10;;;;;;;18.01;63.33;98240.09;5061498;28;20028;-58
2021/08/30 06:40:18;;;;;;;6.13;1.45;;;;;;;18.00;63.28;98244.56;5059178;28;20040;-59
2021/08/30 06:42:44;;;;;;;4.47;1.02;;;;;;;18.06;63.30;98238.47;5052934;28;20659;-57
2021/08/30 06:45:10;;;;;;;7.15;1.10;;;;;;;18.08;63.52;98237.47;5061207;28;20127;-58
2021/08/30 06:47:36;;;;;;;5.35;1.00;;;;;;;18.12;62.89;98236.84;5052800;28;20039;-58
2021/08/30 06:50:03;;;;;;;4.28;0.93;;;;;;;18.06;62.84;98233.22;5062492;28;20384;-58
2021/08/30 06:52:28;;;;;;;4.82;1.00;;;;;;;18.06;63.25;98235.84;5058742;28;20032;-58
2021/08/30 06:54:53;;;;;;;5.95;0.90;;;;;;;18.11;63.49;98237.06;5057490;28;20032;-58
2021/08/30 06:57:19;;;;;;;13.98;1.30;;;;;;;18.09;63.42;98237.28;5053636;28;20083;-58
2021/08/30 06:59:44;;;;;;;5.00;1.10;;;;;;;18.08;63.81;98235.66;5053154;28;20554;-58
2021/08/30 07:02:09;;;;;;;5.68;1.10;;;;;;;18.08;63.12;98232.22;5048624;28;20103;-58
2021/08/30 07:04:35;;;;;;;5.22;1.15;;;;;;;18.01;63.51;98234.84;5055466;28;20032;-58
2021/08/30 07:07:01;;;;;;;4.22;1.20;;;;;;;18.02;63.96;98237.25;5046629;28;20079;-58
2021/08/30 07:09:26;;;;;;;4.63;1.20;;;;;;;18.09;63.76;98229.38;5060756;28;20025;-58
2021/08/30 07:11:52;;;;;;;4.75;1.00;;;;;;;18.11;63.56;98227.34;5053559;28;20656;-58
2021/08/30 07:14:17;;;;;;;4.07;1.20;;;;;;;18.08;64.50;98233.00;5056182;28;20582;-58
2021/08/30 07:16:43;;;;;;;6.78;1.23;;;;;;;18.07;64.15;98226.16;5058418;28;20554;-58
2021/08/30 07:19:09;;;;;;;6.38;1.33;;;;;;;18.01;64.31;98222.47;5072235;28;20036;-58
2021/08/30 07:21:34;;;;;;;7.97;1.40;;;;;;;17.94;64.43;98237.44;5057691;28;20343;-58
2021/08/30 07:23:59;;;;;;;11.27;3.30;;;;;;;18.01;64.13;98229.56;5055185;28;20079;-58
2021/08/30 07:26:25;;;;;;;8.93;3.13;;;;;;;18.05;63.70;98218.47;5066127;28;20487;-58
2021/08/30 07:28:50;;;;;;;10.23;3.70;;;;;;;18.14;63.33;98224.31;5057029;28;20025;-58
2021/08/30 07:31:16;;;;;;;10.10;4.43;;;;;;;18.17;63.85;98225.75;5063575;28;20064;-58
2021/08/30 07:33:42;;;;;;;12.25;2.95;;;;;;;18.22;63.98;98231.19;5051732;28;21697;-58
2021/08/30 07:36:07;;;;;;;4.97;2.10;;;;;;;18.20;63.03;98222.72;5057832;28;20151;-58
2021/08/30 07:38:33;;;;;;;5.85;1.88;;;;;;;18.15;63.94;98206.72;5057963;28;20178;-58
2021/08/30 07:40:58;;;;;;;5.85;2.15;;;;;;;18.08;64.25;98193.56;5058111;28;20450;-58
2021/08/30 07:43:24;;;;;;;5.60;1.75;;;;;;;18.32;64.75;98228.16;5061021;28;20020;-58
2021/08/30 07:45:49;;;;;;;7.00;2.17;;;;;;;18.35;63.32;98235.66;5055623;28;20052;-58
2021/08/30 07:48:15;;;;;;;15.90;1.30;;;;;;;18.17;59.80;98234.44;5060570;28;20507;-58
2021/08/30 07:50:40;;;;;;;11.40;1.17;;;;;;;18.07;59.84;98231.41;5069728;28;20025;-58
2021/08/30 07:53:06;;;;;;;3.47;0.82;;;;;;;18.12;59.48;98228.16;5055481;28;20031;-58
2021/08/30 07:55:35;;;;;;;3.97;0.70;;;;;;;18.09;60.15;98231.19;5051417;28;20036;-58
2021/08/30 07:58:01;;;;;;;10.68;1.20;;;;;;;18.02;59.49;98229.38;5049310;28;20033;-59
2021/08/30 08:00:26;;;;;;;6.43;0.80;;;;;;;18.19;59.09;98236.88;5060205;28;20449;-58
2021/08/30 08:02:52;;;;;;;4.53;0.68;;;;;;;18.06;58.85;98198.22;5054155;28;20463;-58
2021/08/30 08:05:18;;;;;;;5.38;0.60;;;;;;;18.27;58.67;98235.84;5061555;28;20530;-58
2021/08/30 08:07:43;;;;;;;4.38;0.68;;;;;;;18.38;58.55;98232.59;5059234;28;20129;-58
2021/08/30 08:10:09;;;;;;;4.07;0.73;;;;;;;18.34;58.15;98191.91;5057994;28;20086;-59
2021/08/30 08:12:34;;;;;;;4.97;0.68;;;;;;;18.69;57.11;98234.59;5059318;28;20029;-58
2021/08/30 08:14:59;;;;;;;2.25;0.57;;;;;;;18.76;54.79;98231.91;5067343;28;20490;-58
2021/08/30 08:17:25;;;;;;;2.30;0.60;;;;;;;18.75;55.50;98214.53;5063763;28;20024;-59
2021/08/30 08:19:50;;;;;;;1.92;0.60;;;;;;;18.91;57.63;98227.25;5056777;28;20028;-58
2021/08/30 08:22:16;;;;;;;4.65;0.70;;;;;;;19.04;57.56;98228.22;5061357;28;20717;-59
2021/08/30 08:24:41;;;;;;;6.75;0.95;;;;;;;18.87;54.75;98196.25;5058943;28;20051;-60
2021/08/30 08:27:06;;;;;;;1.73;0.50;;;;;;;18.92;53.85;98209.63;5056021;28;20036;-57
2021/08/30 08:29:32;;;;;;;1.70;0.55;;;;;;;19.05;54.72;98204.28;5057650;28;20187;-58
2021/08/30 08:31:57;;;;;;;2.30;0.60;;;;;;;19.36;53.77;98234.38;5057541;28;20040;-58
2021/08/30 08:34:23;;;;;;;2.78;0.60;;;;;;;19.49;53.94;98236.94;5055016;28;20043;-58
2021/08/30 08:36:48;;;;;;;2.60;0.80;;;;;;;19.81;52.30;98234.34;5060896;28;20051;-57
2021/08/30 08:39:13;;;;;;;2.05;0.70;;;;;;;20.54;49.85;98231.09;5061999;28;20086;-58
2021/08/30 08:41:39;;;;;;;3.28;0.60;;;;;;;20.61;48.67;98227.59;5056334;28;20479;-58
2021/08/30 08:44:07;;;;;;;2.92;0.70;;;;;;;21.12;48.96;98237.81;5058886;28;20662;-58
2021/08/30 08:46:34;;;;;;;2.08;0.50;;;;;;;20.69;46.62;98208.84;5056647;28;20613;-59
2021/08/30 08:49:00;;;;;;;2.03;0.50;;;;;;;20.56;46.96;98230.88;5057487;28;20035;-58
2021/08/30 08:51:25;;;;;;;1.38;0.50;;;;;;;20.43;48.01;98237.09;5053834;28;20024;-58
2021/08/30 08:53:51;;;;;;;2.97;0.63;;;;;;;20.16;47.82;98200.38;5049449;28;20029;-58
2021/08/30 08:56:21;;;;;;;1.85;0.57;;;;;;;20.44;48.95;98230.78;5070430;28;20049;-58
2021/08/30 08:58:46;;;;;;;2.40;0.60;;;;;;;20.49;48.27;98241.50;5047056;28;20067;-57
2021/08/30 09:01:12;;;;;;;1.95;0.60;;;;;;;20.49;49.22;98238.06;5059013;28;20487;-58
2021/08/30 09:03:50;;;;;;;3.25;0.63;;;;;;;20.37;49.27;98237.97;5051616;28;20550;-59
2021/08/30 09:06:34;;;;;;;2.53;0.57;;;;;;;20.36;50.61;98239.00;5059846;28;20031;-58
2021/08/30 09:09:01;;;;;;;3.33;0.80;;;;;;;20.33;52.22;98244.69;5060961;28;20047;-58
2021/08/30 09:11:44;;;;;;;2.75;0.43;;;;;;;20.38;51.93;98236.94;5052449;28;20101;-58
2021/08/30 09:14:21;;;;;;;3.35;0.80;;;;;;;20.44;51.30;98236.06;5048465;28;20339;-58
2021/08/30 09:16:49;;;;;;;2.50;0.70;;;;;;;20.49;52.21;98236.22;5061279;28;20159;-58
2021/08/30 09:19:17;;;;;;;4.30;0.77;;;;;;;20.50;52.14;98235.22;5056292;28;20111;-59
2021/08/30 09:21:48;;;;;;;4.35;0.98;;;;;;;20.33;52.20;98205.91;5046627;28;20025;-58
2021/08/30 09:24:25;;;;;;;2.55;0.82;;;;;;;20.53;53.09;98239.22;5057681;28;20097;-58
2021/08/30 09:26:56;;;;;;;3.80;0.90;;;;;;;20.58;53.15;98236.75;5057358;28;20107;-58
2021/08/30 09:29:24;;;;;;;4.25;1.20;;;;;;;20.55;52.31;98230.09;5049683;28;20421;-59
2021/08/30 09:31:56;;;;;;;4.22;1.00;;;;;;;20.59;52.72;98242.84;5055275;28;20035;-57
2021/08/30 09:34:27;;;;;;;7.30;1.25;;;;;;;20.65;52.02;98226.16;5056597;28;20028;-57
2021/08/30 09:36:53;;;;;;;3.60;0.98;;;;;;;20.47;51.95;98196.03;5077475;28;20025;-58
2021/08/30 09:39:18;;;;;;;3.33;0.95;;;;;;;20.66;52.02;98222.47;5056733;28;20115;-58
2021/08/30 09:41:44;;;;;;;5.07;1.30;;;;;;;20.68;52.38;98202.75;5056729;28;20020;-58
2021/08/30 09:44:10;;;;;;;2.47;0.80;;;;;;;20.72;52.41;98211.84;5054116;28;20044;-58
2021/08/30 09:46:35;;;;;;;7.45;0.93;;;;;;;20.78;52.04;98212.81;5045827;28;20039;-58
2021/08/30 09:49:05;;;;;;;2.92;0.90;;;;;;;20.73;52.32;98212.66;5072387;28;20458;-58
2021/08/30 09:51:32;;;;;;;6.85;1.10;;;;;;;20.72;51.91;98197.84;5055444;28;20186;-58
2021/08/30 09:53:58;;;;;;;5.20;0.90;;;;;;;20.76;51.62;98206.94;5050945;28;20533;-58
2021/08/30 09:56:23;;;;;;;2.97;0.90;;;;;;;21.06;50.34;98198.25;5057208;28;20343;-58
2021/08/30 09:58:50;;;;;;;3.72;1.10;;;;;;;21.09;50.08;98169.53;5061565;28;20028;-58
2021/08/30 10:01:16;;;;;;;3.13;0.80;;;;;;;21.19;51.25;98203.38;5064076;28;20107;-58
2021/08/30 10:03:41;;;;;;;6.95;1.05;;;;;;;21.25;50.44;98199.84;5076702;28;20475;-56
2021/08/30 10:06:08;;;;;;;2.63;0.88;;;;;;;21.31;50.78;98192.84;5059337;28;20374;-58
2021/08/30 10:08:35;;;;;;;3.83;1.02;;;;;;;21.37;50.18;98199.88;5063393;28;20342;-58
2021/08/30 10:11:01;;;;;;;2.97;0.85;;;;;;;21.21;51.47;98200.50;5062721;28;20028;-57
2021/08/30 10:13:27;;;;;;;3.17;1.20;;;;;;;21.00;51.08;98165.59;5064480;28;20095;-58
2021/08/30 10:15:53;;;;;;;3.42;0.80;;;;;;;21.27;49.86;98203.06;5061803;28;20123;-58
2021/08/30 10:18:21;;;;;;;3.92;0.90;;;;;;;21.37;49.26;98204.34;5059109;28;20028;-58
2021/08/30 10:20:50;;;;;;;2.92;0.85;;;;;;;21.38;50.05;98208.63;5063345;28;20054;-58
2021/08/30 10:23:18;;;;;;;3.50;1.08;;;;;;;21.31;49.83;98200.78;5065403;28;20038;-58
2021/08/30 10:25:58;;;;;;;2.70;0.82;;;;;;;21.30;50.34;98197.34;5061981;28;20499;-58
2021/08/30 10:28:37;;;;;;;3.15;1.00;;;;;;;21.36;50.08;98198.28;5058125;28;20170;-58
2021/08/30 10:31:14;;;;;;;3.17;0.85;;;;;;;21.41;49.09;98160.56;5063501;28;20021;-58
2021/08/30 10:33:40;;;;;;;3.03;0.80;;;;;;;21.57;49.41;98185.59;5063448;28;20123;-59
2021/08/30 10:36:17;;;;;;;2.28;0.65;;;;;;;21.66;49.03;98179.75;5059935;28;20132;-58
2021/08/30 10:38:43;;;;;;;2.95;0.80;;;;;;;21.76;47.68;98179.19;5058092;28;20138;-58
2021/08/30 10:41:17;;;;;;;6.78;1.00;;;;;;;21.62;48.52;98167.22;5058308;28;20032;-58
2021/08/30 10:43:43;;;;;;;2.63;0.90;;;;;;;21.57;48.79;98152.00;5065223;28;20381;-58
2021/08/30 10:46:16;;;;;;;3.08;0.95;;;;;;;21.77;48.98;98177.34;5059112;28;20032;-57
2021/08/30 10:48:48;;;;;;;2.80;0.90;;;;;;;21.97;48.29;98175.19;5060203;28;20024;-58
2021/08/30 10:51:14;;;;;;;4.07;1.10;;;;;;;21.94;48.78;98178.31;5061478;28;20043;-58
2021/08/30 10:53:40;;;;;;;4.07;1.00;;;;;;;21.94;48.41;98165.09;5060639;28;20119;-58
2021/08/30 10:56:09;;;;;;;2.95;0.93;;;;;;;22.06;47.72;98173.00;5054780;28;20021;-58
2021/08/30 10:58:35;;;;;;;4.70;0.80;;;;;;;21.66;48.33;98113.59;5061567;28;20035;-58
2021/08/30 11:01:11;;;;;;;3.40;1.02;;;;;;;21.95;47.53;98153.44;5054347;28;20487;-56
2021/08/30 11:03:36;;;;;;;3.35;1.10;;;;;;;21.99;47.95;98161.72;5057708;28;20048;-58
2021/08/30 11:06:14;;;;;;;3.90;1.00;;;;;;;22.04;46.59;98135.38;5063159;28;20074;-58
2021/08/30 11:08:40;;;;;;;4.28;1.00;;;;;;;22.12;47.27;98147.47;5061861;28;20387;-58
2021/08/30 11:11:13;;;;;;;3.42;0.90;;;;;;;22.29;46.38;98150.25;5053496;28;20493;-58
2021/08/30 11:13:40;;;;;;;2.90;1.00;;;;;;;22.33;47.18;98154.06;5066784;28;20040;-58
2021/08/30 11:16:39;;;;;;;3.20;0.98;;;;;;;22.40;45.65;98150.25;5065341;28;20090;-58
2021/08/30 11:19:08;;;;;;;3.87;1.20;;;;;;;22.46;46.74;98154.59;5060061;28;20071;-58
2021/08/30 11:21:33;;;;;;;3.30;1.00;;;;;;;22.46;46.90;98159.09;5054206;28;20270;-60
2021/08/30 11:23:59;;;;;;;3.45;1.02;;;;;;;22.50;46.66;98152.28;5057634;28;20032;-59
2021/08/30 11:26:24;;;;;;;4.05;1.15;;;;;;;22.49;46.98;98152.50;5059298;28;20032;-58
2021/08/30 11:29:01;;;;;;;5.00;1.00;;;;;;;22.40;46.35;98131.69;5058650;28;20570;-59
2021/08/30 11:31:28;;;;;;;3.10;1.10;;;;;;;22.58;45.13;98141.34;5070911;28;20047;-58
2021/08/30 11:33:54;;;;;;;7.82;1.33;;;;;;;22.59;46.96;98144.78;5059479;28;20020;-61
2021/08/30 11:36:19;;;;;;;4.78;1.00;;;;;;;22.64;46.20;98144.91;5065056;28;20556;-60